createdAt,value
2023-02-02T00:02:11.143Z,64.85
2023-02-02T00:04:38.093Z,64.71
2023-02-02T00:07:05.751Z,64.93
2023-02-02T00:09:33.501Z,64.29
2023-02-02T00:12:01.239Z,64.27
2023-02-02T00:14:28.498Z,63.66
2023-02-02T00:16:56.998Z,64.75
2023-02-02T00:19:28.670Z,64.92
2023-02-02T00:21:55.717Z,65.23
2023-02-02T00:24:23.276Z,65.41
2023-02-02T00:26:52.941Z,64.56
2023-02-02T00:29:22.741Z,64.86
2023-02-02T00:31:50.019Z,65.85
2023-02-02T00:34:17.483Z,65.77
2023-02-02T00:36:45.361Z,65.46
2023-02-02T00:39:18.653Z,64.11
2023-02-02T00:41:46.086Z,63.97
2023-02-02T00:44:31.461Z,62.40
2023-02-02T00:46:58.492Z,62.91
2023-02-02T00:49:25.323Z,62.17
2023-02-02T00:51:51.984Z,62.98
2023-02-02T00:54:18.921Z,62.10
2023-02-02T00:56:45.800Z,61.49
2023-02-02T00:59:12.702Z,62.17
2023-02-02T01:01:39.606Z,61.63
2023-02-02T01:04:06.654Z,60.92
2023-02-02T01:06:33.602Z,61.45
2023-02-02T01:09:00.514Z,61.51
2023-02-02T01:11:27.407Z,61.71
2023-02-02T01:13:54.278Z,61.24
2023-02-02T01:16:22.697Z,61.95
2023-02-02T01:18:50.970Z,61.63
2023-02-02T01:21:18.019Z,61.19
2023-02-02T01:23:44.921Z,61.42
2023-02-02T01:26:12.901Z,61.14
2023-02-02T01:28:40.329Z,60.48
2023-02-02T01:31:12.685Z,59.92
2023-02-02T01:33:40.117Z,60.09
2023-02-02T01:36:10.984Z,60.07
2023-02-02T01:38:38.048Z,61.34
2023-02-02T01:41:05.487Z,62.46
2023-02-02T01:43:44.376Z,65.62
2023-02-02T01:46:16.939Z,67.51
2023-02-02T01:48:57.329Z,69.25
2023-02-02T01:51:30.670Z,71.30
2023-02-02T01:53:58.710Z,73.08
2023-02-02T01:56:37.509Z,76.89
2023-02-02T01:59:05.599Z,78.94
2023-02-02T02:01:33.457Z,82.89
2023-02-02T02:04:00.332Z,83.48
2023-02-02T02:06:27.373Z,84.11
2023-02-02T02:09:09.010Z,82.91
2023-02-02T02:11:36.390Z,83.03
2023-02-02T02:14:26.626Z,85.05
2023-02-02T02:16:58.898Z,87.23
2023-02-02T02:20:18.372Z,87.77
2023-02-02T02:23:34.099Z,90.79
2023-02-02T02:26:34.281Z,94.57
2023-02-02T02:29:30.430Z,95.11
2023-02-02T02:32:19.043Z,98.72
2023-02-02T02:34:56.805Z,99.95
2023-02-02T02:37:32.696Z,100.00
2023-02-02T02:40:22.214Z,100.00
2023-02-02T02:42:58.958Z,100.00
2023-02-02T02:45:27.811Z,100.00
2023-02-02T02:47:55.435Z,100.00
2023-02-02T02:50:22.946Z,100.00
2023-02-02T02:52:56.802Z,100.00
2023-02-02T02:55:24.538Z,100.00
2023-02-02T02:58:11.132Z,100.00
2023-02-02T03:00:44.125Z,100.00
2023-02-02T03:03:32.361Z,100.00
2023-02-02T03:06:13.152Z,100.00
2023-02-02T03:08:43.003Z,100.00
2023-02-02T03:11:11.816Z,100.00
2023-02-02T03:13:39.293Z,100.00
2023-02-02T03:16:06.371Z,100.00
2023-02-02T03:18:33.864Z,100.00
2023-02-02T03:21:00.765Z,100.00
2023-02-02T03:23:27.672Z,100.00
2023-02-02T03:25:55.238Z,100.00
2023-02-02T03:28:23.760Z,100.00
2023-02-02T03:30:51.612Z,100.00
2023-02-02T03:33:18.929Z,100.00
2023-02-02T03:35:45.813Z,100.00
2023-02-02T03:38:12.923Z,100.00
2023-02-02T03:40:40.606Z,100.00
2023-02-02T03:43:07.471Z,100.00
2023-02-02T03:45:37.436Z,100.00
2023-02-02T03:48:05.942Z,100.00
2023-02-02T03:50:33.551Z,100.00
2023-02-02T03:53:00.514Z,100.00
2023-02-02T03:55:27.361Z,100.00
2023-02-02T03:57:54.047Z,100.00
2023-02-02T04:00:21.508Z,100.00
2023-02-02T04:02:48.436Z,100.00
2023-02-02T04:05:15.363Z,100.00
2023-02-02T04:07:42.277Z,100.00
2023-02-02T04:10:09.300Z,100.00
2023-02-02T04:12:36.142Z,100.00
2023-02-02T04:15:02.882Z,100.00
2023-02-02T04:17:30.053Z,100.00
2023-02-02T04:19:58.654Z,100.00
2023-02-02T04:22:26.505Z,100.00
2023-02-02T04:24:53.394Z,100.00
2023-02-02T04:27:20.126Z,100.00
2023-02-02T04:29:47.089Z,100.00
2023-02-02T04:32:17.790Z,100.00
2023-02-02T04:34:45.068Z,100.00
2023-02-02T04:37:12.172Z,100.00
2023-02-02T04:39:39.133Z,100.00
2023-02-02T04:42:06.074Z,100.00
2023-02-02T04:44:33.055Z,100.00
2023-02-02T04:46:59.909Z,100.00
2023-02-02T04:49:26.639Z,100.00
2023-02-02T04:51:53.497Z,100.00
2023-02-02T04:54:20.153Z,100.00
2023-02-02T04:56:47.161Z,100.00
2023-02-02T04:59:14.009Z,100.00
2023-02-02T05:01:41.061Z,100.00
2023-02-02T05:04:07.853Z,100.00
2023-02-02T05:06:34.772Z,100.00
2023-02-02T05:09:01.459Z,100.00
2023-02-02T05:11:28.516Z,100.00
2023-02-02T05:13:55.636Z,100.00
2023-02-02T05:16:24.098Z,100.00
2023-02-02T05:18:52.792Z,100.00
2023-02-02T05:21:20.801Z,100.00
2023-02-02T05:23:47.839Z,100.00
2023-02-02T05:26:21.656Z,100.00
2023-02-02T05:28:48.730Z,100.00
2023-02-02T05:31:15.766Z,100.00
2023-02-02T05:33:42.816Z,100.00
2023-02-02T05:36:10.108Z,100.00
2023-02-02T05:38:36.969Z,100.00
2023-02-02T05:41:04.101Z,100.00
2023-02-02T05:43:32.166Z,100.00
2023-02-02T05:45:59.563Z,100.00
2023-02-02T05:48:26.903Z,100.00
2023-02-02T05:51:04.999Z,100.00
2023-02-02T05:53:32.224Z,99.80
2023-02-02T05:55:59.318Z,99.79
2023-02-02T05:58:26.295Z,100.00
2023-02-02T06:00:54.994Z,100.00
2023-02-02T06:03:23.603Z,100.00
2023-02-02T06:05:50.568Z,100.00
2023-02-02T06:08:17.266Z,100.00
2023-02-02T06:10:44.342Z,100.00
2023-02-02T06:13:11.638Z,99.78
2023-02-02T06:15:38.735Z,99.23
2023-02-02T06:18:08.689Z,98.97
2023-02-02T06:20:35.845Z,98.56
2023-02-02T06:23:03.033Z,98.95
2023-02-02T06:25:29.881Z,99.08
2023-02-02T06:28:00.027Z,99.25
2023-02-02T06:30:28.036Z,99.29
2023-02-02T06:32:55.105Z,100.00
2023-02-02T06:35:22.511Z,100.00
2023-02-02T06:37:49.703Z,99.78
2023-02-02T06:40:16.892Z,98.97
2023-02-02T06:42:43.745Z,97.14
2023-02-02T06:45:10.810Z,98.79
2023-02-02T06:47:37.710Z,98.37
2023-02-02T06:50:04.987Z,97.49
2023-02-02T06:52:31.853Z,95.33
2023-02-02T06:54:58.549Z,96.14
2023-02-02T06:57:25.466Z,95.88
2023-02-02T06:59:52.470Z,95.36
2023-02-02T07:02:19.559Z,95.54
2023-02-02T07:04:46.455Z,95.09
2023-02-02T07:07:13.126Z,95.39
2023-02-02T07:09:39.965Z,94.09
2023-02-02T07:12:06.781Z,94.96
2023-02-02T07:14:33.723Z,95.74
2023-02-02T07:17:00.615Z,95.65
2023-02-02T07:19:27.325Z,94.64
2023-02-02T07:21:54.190Z,94.06
2023-02-02T07:24:20.864Z,93.17
2023-02-02T07:26:47.750Z,90.97
2023-02-02T07:29:14.748Z,89.20
2023-02-02T07:31:41.801Z,87.98
2023-02-02T07:34:08.795Z,88.28
2023-02-02T07:36:36.019Z,86.85
2023-02-02T07:39:05.153Z,86.11
2023-02-02T07:41:32.407Z,84.60
2023-02-02T07:43:59.315Z,84.59
2023-02-02T07:46:26.215Z,83.94
2023-02-02T07:48:57.223Z,83.66
2023-02-02T07:51:25.583Z,83.01
2023-02-02T07:53:54.081Z,80.29
2023-02-02T07:56:23.679Z,80.42
2023-02-02T07:58:52.791Z,79.29
2023-02-02T08:01:23.016Z,78.20
2023-02-02T08:03:50.901Z,74.95
2023-02-02T08:06:26.506Z,76.59
2023-02-02T08:08:53.443Z,74.57
2023-02-02T08:11:22.390Z,74.59
2023-02-02T08:13:53.119Z,76.17
2023-02-02T08:16:20.925Z,73.10
2023-02-02T08:18:48.648Z,70.90
2023-02-02T08:21:16.670Z,68.79
2023-02-02T08:23:44.117Z,67.01
2023-02-02T08:26:13.953Z,66.31
2023-02-02T08:28:41.904Z,65.00
2023-02-02T08:31:18.189Z,66.53
2023-02-02T08:33:45.505Z,66.95
2023-02-02T08:36:14.141Z,65.20
2023-02-02T08:38:41.365Z,65.11
2023-02-02T08:41:10.296Z,65.72
2023-02-02T08:43:37.604Z,65.79
2023-02-02T08:46:05.795Z,66.52
2023-02-02T08:48:34.443Z,66.73
2023-02-02T08:51:01.970Z,65.50
2023-02-02T08:53:29.493Z,66.25
2023-02-02T08:56:10.144Z,66.23
2023-02-02T08:58:37.042Z,61.86
2023-02-02T09:01:08.911Z,62.66
2023-02-02T09:03:36.117Z,64.46
2023-02-02T09:06:07.440Z,64.10
2023-02-02T09:08:36.366Z,64.71
2023-02-02T09:11:10.488Z,64.84
2023-02-02T09:13:38.292Z,64.25
2023-02-02T09:16:07.074Z,65.91
2023-02-02T09:18:33.945Z,66.17
2023-02-02T09:21:02.736Z,66.92
2023-02-02T09:23:31.249Z,66.83
2023-02-02T09:25:58.511Z,66.92
2023-02-02T09:28:25.349Z,65.96
2023-02-02T09:30:52.288Z,66.73
2023-02-02T09:33:19.156Z,65.92
2023-02-02T09:35:46.255Z,66.80
2023-02-02T09:38:13.150Z,65.65
2023-02-02T09:40:40.820Z,64.85
2023-02-02T09:43:30.616Z,67.27
2023-02-02T09:46:20.885Z,66.82
2023-02-02T09:49:04.923Z,68.54
2023-02-02T09:51:42.228Z,68.97
2023-02-02T09:54:19.066Z,68.65
2023-02-02T09:56:50.958Z,69.83
2023-02-02T09:59:23.477Z,71.18
2023-02-02T10:01:55.593Z,71.60
2023-02-02T10:04:35.746Z,70.44
2023-02-02T10:07:33.704Z,69.77
2023-02-02T10:10:11.123Z,70.98
2023-02-02T10:12:56.200Z,70.50
2023-02-02T10:16:01.799Z,69.53
2023-02-02T10:21:14.353Z,67.26
2023-02-02T10:23:45.847Z,67.56
2023-02-02T10:26:39.340Z,66.32
2023-02-02T10:29:19.028Z,64.67
2023-02-02T10:32:12.935Z,65.24
2023-02-02T10:34:45.160Z,64.87
2023-02-02T10:37:42.826Z,66.05
2023-02-02T10:40:21.767Z,65.85
2023-02-02T10:43:45.827Z,65.33
2023-02-02T10:46:26.991Z,63.51
2023-02-02T10:49:14.571Z,64.42
2023-02-02T10:51:42.055Z,65.63
2023-02-02T10:54:50.114Z,65.88
2023-02-02T10:57:37.380Z,64.46
2023-02-02T11:00:13.690Z,65.01
2023-02-02T11:02:40.585Z,64.09
2023-02-02T11:05:32.658Z,66.01
2023-02-02T11:07:59.607Z,67.20
2023-02-02T11:10:26.661Z,66.13
2023-02-02T11:12:57.009Z,66.27
2023-02-02T11:15:30.049Z,67.90
2023-02-02T11:17:56.926Z,66.97
2023-02-02T11:20:24.108Z,65.68
2023-02-02T11:23:01.333Z,66.35
2023-02-02T11:25:34.154Z,66.46
2023-02-02T11:28:20.286Z,66.56
2023-02-02T11:30:52.710Z,64.30
2023-02-02T11:33:28.667Z,60.92
2023-02-02T11:35:57.967Z,61.18
2023-02-02T11:38:25.576Z,60.55
2023-02-02T11:41:07.154Z,58.86
2023-02-02T11:43:44.405Z,60.19
2023-02-02T11:46:24.775Z,61.88
2023-02-02T11:48:59.994Z,60.18
2023-02-02T11:51:29.482Z,60.42
2023-02-02T11:54:08.281Z,59.86
2023-02-02T11:56:37.241Z,60.40
2023-02-02T11:59:04.345Z,60.92
2023-02-02T12:01:39.998Z,61.23
2023-02-02T12:04:16.081Z,63.45
2023-02-02T12:06:43.119Z,64.35
2023-02-02T12:09:15.118Z,64.60
2023-02-02T12:12:02.858Z,66.19
2023-02-02T12:14:35.312Z,66.16
2023-02-02T12:17:12.214Z,66.26
2023-02-02T12:19:51.861Z,66.54
2023-02-02T12:22:38.790Z,66.29
2023-02-02T12:25:24.286Z,65.75
2023-02-02T12:28:19.281Z,65.60
2023-02-02T12:31:11.249Z,66.02
2023-02-02T12:33:50.712Z,65.60
2023-02-02T12:36:32.962Z,65.91
2023-02-02T12:39:18.561Z,66.53
2023-02-02T12:42:04.288Z,64.53
2023-02-02T12:44:46.290Z,63.06
2023-02-02T12:47:16.158Z,63.23
2023-02-02T12:50:09.657Z,64.59
2023-02-02T12:53:21.493Z,65.38
2023-02-02T12:55:53.225Z,63.82
2023-02-02T12:58:47.160Z,63.14
2023-02-02T13:01:25.489Z,64.24
2023-02-02T13:04:17.894Z,64.00
2023-02-02T13:07:08.193Z,62.87
2023-02-02T13:09:50.089Z,64.33
2023-02-02T13:12:20.308Z,63.26
2023-02-02T13:14:51.651Z,64.33
2023-02-02T13:17:33.126Z,63.50
2023-02-02T13:20:04.695Z,64.68
2023-02-02T13:22:43.233Z,63.76
2023-02-02T13:25:19.872Z,63.70
2023-02-02T13:27:49.816Z,64.24
2023-02-02T13:30:31.668Z,63.86
2023-02-02T13:33:06.539Z,65.28
2023-02-02T13:35:55.711Z,64.91
2023-02-02T13:38:28.336Z,64.60
2023-02-02T13:40:57.464Z,65.21
2023-02-02T13:43:58.654Z,65.03
2023-02-02T13:46:37.020Z,66.28
2023-02-02T13:49:23.289Z,66.68
2023-02-02T13:51:56.068Z,67.71
2023-02-02T13:54:26.076Z,66.35
2023-02-02T13:57:06.404Z,66.61
2023-02-02T14:00:11.705Z,66.24
2023-02-02T14:02:44.422Z,66.48
2023-02-02T14:05:24.692Z,66.47
2023-02-02T14:08:09.262Z,65.11
2023-02-02T14:10:39.465Z,65.33
2023-02-02T14:13:32.329Z,64.80
2023-02-02T14:16:01.140Z,64.03
2023-02-02T14:18:53.594Z,65.17
2023-02-02T14:21:32.974Z,64.90
2023-02-02T14:24:04.861Z,64.73
2023-02-02T14:26:49.878Z,65.34
2023-02-02T14:29:31.954Z,65.02
2023-02-02T14:32:01.195Z,65.31
2023-02-02T14:34:41.949Z,64.83
2023-02-02T14:37:23.926Z,65.03
2023-02-02T14:40:06.381Z,65.05
2023-02-02T14:43:24.228Z,65.65
2023-02-02T14:46:14.833Z,66.36
2023-02-02T14:48:46.863Z,66.57
2023-02-02T14:51:16.957Z,67.04
2023-02-02T14:53:53.425Z,67.21
2023-02-02T14:56:21.530Z,67.26
2023-02-02T14:59:00.937Z,68.08
2023-02-02T15:01:35.781Z,68.65
2023-02-02T15:04:21.595Z,68.89
2023-02-02T15:06:51.277Z,68.96
2023-02-02T15:09:21.194Z,68.73
2023-02-02T15:12:03.132Z,69.13
2023-02-02T15:14:36.023Z,70.01
2023-02-02T15:17:29.172Z,69.30
2023-02-02T15:20:20.988Z,70.61
2023-02-02T15:22:47.955Z,69.82
2023-02-02T15:25:17.719Z,70.77
2023-02-02T15:27:56.582Z,70.19
2023-02-02T15:30:24.828Z,70.13
2023-02-02T15:32:52.835Z,71.41
2023-02-02T15:35:28.515Z,70.83
2023-02-02T15:38:00.815Z,71.11
2023-02-02T15:40:30.007Z,71.19
2023-02-02T15:43:02.948Z,72.36
2023-02-02T15:45:32.355Z,72.71
2023-02-02T15:48:00.236Z,73.04
2023-02-02T15:50:27.392Z,73.66
2023-02-02T15:52:55.485Z,72.72
2023-02-02T15:55:36.606Z,72.94
2023-02-02T15:58:03.723Z,73.46
2023-02-02T16:00:33.865Z,73.44
2023-02-02T16:03:29.998Z,73.38
2023-02-02T16:05:57.123Z,73.44
2023-02-02T16:08:30.140Z,73.02
2023-02-02T16:11:17.727Z,73.13
2023-02-02T16:13:57.340Z,71.99
2023-02-02T16:16:25.746Z,71.98
2023-02-02T16:19:02.561Z,72.47
2023-02-02T16:21:29.941Z,71.57
2023-02-02T16:23:57.690Z,70.78
2023-02-02T16:26:28.460Z,70.73
2023-02-02T16:28:55.619Z,70.93
2023-02-02T16:31:22.665Z,71.66
2023-02-02T16:33:49.621Z,71.65
2023-02-02T16:36:24.371Z,72.22
2023-02-02T16:38:52.675Z,72.11
2023-02-02T16:41:33.874Z,72.59
2023-02-02T16:44:30.936Z,73.99
2023-02-02T16:46:58.766Z,75.89
2023-02-02T16:49:27.541Z,76.84
2023-02-02T16:52:13.034Z,77.75
2023-02-02T16:54:45.494Z,78.86
2023-02-02T16:57:18.703Z,80.04
2023-02-02T16:59:52.289Z,80.64
2023-02-02T17:02:29.529Z,81.27
2023-02-02T17:05:02.604Z,83.33
2023-02-02T17:07:30.481Z,84.80
2023-02-02T17:10:34.225Z,85.59
2023-02-02T17:13:02.057Z,86.43
2023-02-02T17:15:34.684Z,87.35
2023-02-02T17:18:03.297Z,88.54
2023-02-02T17:20:30.716Z,89.31
2023-02-02T17:23:02.204Z,90.12
2023-02-02T17:25:42.201Z,90.46
2023-02-02T17:28:14.335Z,90.97
2023-02-02T17:30:42.395Z,91.71
2023-02-02T17:33:16.381Z,92.12
2023-02-02T17:35:54.363Z,91.56
2023-02-02T17:38:25.551Z,91.73
2023-02-02T17:40:53.247Z,92.08
2023-02-02T17:43:20.333Z,93.13
2023-02-02T17:45:47.452Z,93.68
2023-02-02T17:48:14.652Z,94.29
2023-02-02T17:50:42.669Z,94.33
2023-02-02T17:53:12.807Z,93.30
2023-02-02T17:55:42.214Z,94.24
2023-02-02T17:58:10.668Z,94.34
2023-02-02T18:00:38.922Z,93.87
2023-02-02T18:03:25.210Z,94.26
2023-02-02T18:05:52.226Z,93.75
2023-02-02T18:08:19.384Z,94.49
2023-02-02T18:10:46.431Z,93.62
2023-02-02T18:13:19.241Z,93.37
2023-02-02T18:15:46.812Z,93.46
2023-02-02T18:18:13.709Z,93.77
2023-02-02T18:20:47.385Z,93.92
2023-02-02T18:23:15.045Z,93.68
2023-02-02T18:25:42.091Z,93.96
2023-02-02T18:28:10.603Z,94.46
2023-02-02T18:30:41.374Z,93.27
2023-02-02T18:33:09.549Z,92.28
2023-02-02T18:35:40.824Z,93.37
2023-02-02T18:38:07.699Z,93.29
2023-02-02T18:40:34.391Z,92.54
2023-02-02T18:43:01.237Z,92.93
2023-02-02T18:45:28.918Z,93.35
2023-02-02T18:47:55.802Z,92.76
2023-02-02T18:50:24.139Z,94.08
2023-02-02T18:52:51.093Z,93.72
2023-02-02T18:55:17.970Z,93.37
2023-02-02T18:57:44.740Z,93.31
2023-02-02T19:00:12.291Z,93.55
2023-02-02T19:02:39.148Z,93.02
2023-02-02T19:05:24.469Z,92.87
2023-02-02T19:07:59.155Z,91.89
2023-02-02T19:10:27.760Z,91.78
2023-02-02T19:13:01.260Z,91.65
2023-02-02T19:15:28.473Z,92.04
2023-02-02T19:17:55.694Z,91.31
2023-02-02T19:20:28.377Z,91.21
2023-02-02T19:23:18.283Z,91.00
2023-02-02T19:25:50.753Z,90.60
2023-02-02T19:28:22.437Z,90.14
2023-02-02T19:30:50.819Z,91.41
2023-02-02T19:33:17.940Z,91.17
2023-02-02T19:35:46.676Z,90.72
2023-02-02T19:38:14.825Z,90.98
2023-02-02T19:40:43.323Z,89.58
2023-02-02T19:43:13.530Z,90.48
2023-02-02T19:45:40.700Z,90.03
2023-02-02T19:48:28.313Z,88.62
2023-02-02T19:50:56.126Z,88.35
2023-02-02T19:53:35.900Z,87.60
2023-02-02T19:56:27.858Z,87.89
2023-02-02T19:58:54.763Z,86.95
2023-02-02T20:01:21.771Z,86.04
2023-02-02T20:03:49.407Z,86.78
2023-02-02T20:06:26.766Z,84.89
2023-02-02T20:08:53.611Z,87.60
2023-02-02T20:11:36.140Z,87.35
2023-02-02T20:14:19.114Z,87.17
2023-02-02T20:16:49.685Z,87.35
2023-02-02T20:19:25.317Z,86.65
2023-02-02T20:21:53.457Z,88.51
2023-02-02T20:24:37.829Z,88.48
2023-02-02T20:27:26.149Z,87.89
2023-02-02T20:29:54.476Z,88.81
2023-02-02T20:32:26.613Z,88.26
2023-02-02T20:34:55.052Z,85.49
2023-02-02T20:37:31.868Z,86.82
2023-02-02T20:40:01.635Z,88.24
2023-02-02T20:42:29.136Z,86.87
2023-02-02T20:44:56.662Z,87.01
2023-02-02T20:47:23.615Z,86.10
2023-02-02T20:49:50.521Z,86.81
2023-02-02T20:52:23.679Z,86.60
2023-02-02T20:54:51.492Z,86.28
2023-02-02T20:57:18.773Z,85.73
2023-02-02T20:59:45.772Z,86.70
2023-02-02T21:02:21.127Z,86.69
2023-02-02T21:04:48.699Z,87.41
2023-02-02T21:07:17.397Z,86.01
2023-02-02T21:09:45.050Z,86.14
2023-02-02T21:12:12.397Z,85.86
2023-02-02T21:14:39.442Z,85.81
2023-02-02T21:17:14.938Z,86.30
2023-02-02T21:19:42.570Z,86.05
2023-02-02T21:22:09.646Z,85.67
2023-02-02T21:24:36.508Z,86.12
2023-02-02T21:27:04.776Z,85.11
2023-02-02T21:29:32.718Z,84.56
2023-02-02T21:32:02.749Z,84.22
2023-02-02T21:34:31.165Z,83.88
2023-02-02T21:36:58.778Z,84.19
2023-02-02T21:39:33.283Z,84.08
2023-02-02T21:42:09.234Z,82.86
2023-02-02T21:44:43.272Z,83.53
2023-02-02T21:47:27.585Z,82.95
2023-02-02T21:49:56.613Z,81.42
2023-02-02T21:52:23.928Z,81.42
2023-02-02T21:54:50.813Z,82.01
2023-02-02T21:57:22.473Z,81.62
2023-02-02T21:59:56.280Z,81.96
2023-02-02T22:02:44.080Z,81.14
2023-02-02T22:05:14.160Z,82.47
2023-02-02T22:07:42.926Z,80.35
2023-02-02T22:10:24.007Z,82.26
2023-02-02T22:12:51.208Z,82.67
2023-02-02T22:15:21.889Z,81.76
2023-02-02T22:17:49.373Z,81.03
2023-02-02T22:20:16.277Z,81.94
2023-02-02T22:22:47.066Z,83.03
2023-02-02T22:25:16.978Z,83.48
2023-02-02T22:27:47.729Z,83.87
2023-02-02T22:30:26.269Z,83.82
2023-02-02T22:32:54.127Z,83.62
2023-02-02T22:35:21.791Z,82.43
2023-02-02T22:37:48.641Z,84.26
2023-02-02T22:40:16.625Z,83.96
2023-02-02T22:42:43.776Z,84.15
2023-02-02T22:45:11.193Z,84.29
2023-02-02T22:47:38.065Z,85.31
2023-02-02T22:50:04.949Z,85.48
2023-02-02T22:52:31.820Z,84.88
2023-02-02T22:54:58.616Z,86.06
2023-02-02T22:57:25.489Z,84.86
2023-02-02T22:59:52.157Z,86.69
2023-02-02T23:02:19.064Z,85.58
2023-02-02T23:04:45.954Z,85.85
2023-02-02T23:07:12.618Z,86.04
2023-02-02T23:09:39.458Z,85.57
2023-02-02T23:12:06.285Z,84.75
2023-02-02T23:14:33.147Z,84.96
2023-02-02T23:16:59.799Z,84.94
2023-02-02T23:19:26.669Z,84.12
2023-02-02T23:21:53.384Z,84.57
2023-02-02T23:24:20.246Z,83.94
2023-02-02T23:26:46.924Z,84.05
2023-02-02T23:29:13.814Z,85.97
2023-02-02T23:31:40.521Z,85.74
2023-02-02T23:34:07.412Z,84.12
2023-02-02T23:36:34.086Z,83.27
2023-02-02T23:39:00.943Z,84.37
2023-02-02T23:41:27.619Z,83.88
2023-02-02T23:43:54.472Z,84.11
2023-02-02T23:46:21.166Z,83.36
2023-02-02T23:48:48.253Z,84.32
2023-02-02T23:51:15.407Z,84.53
2023-02-02T23:53:42.623Z,83.13
2023-02-02T23:56:09.947Z,83.83
2023-02-02T23:58:36.949Z,83.74
